Time;durP1;ratioP1;P1;durP2;ratioP2;P2;SDS_P1;SDS_P2;PMS_P1;PMS_P2;Temp;Humidity;BMP_temperature;BMP_pressure;BME280_temperature;BME280_humidity;BME280_pressure;Samples;Min_cycle;Max_cycle;Signal;HPM_P1;HPM_P2
2021/03/05 00:02:56;;;;;;;45.80;23.13;;;;;;;3.04;81.76;98438.13;258715;1109;23025;-73
2021/03/05 00:08:08;;;;;;;44.97;23.90;;;;;;;3.01;81.75;98429.91;258996;1109;23277;-72
2021/03/05 00:13:12;;;;;;;43.57;21.63;;;;;;;2.93;82.01;98432.98;258701;1109;23080;-73
2021/03/05 00:18:15;;;;;;;46.00;23.40;;;;;;;2.88;81.70;98439.81;258769;1109;23354;-73
2021/03/05 00:23:18;;;;;;;52.17;23.87;;;;;;;2.86;81.74;98451.67;258771;1108;23084;-72
2021/03/05 00:28:20;;;;;;;45.27;23.67;;;;;;;2.85;82.00;98447.42;258605;1109;27790;-73
2021/03/05 00:33:22;;;;;;;45.90;21.97;;;;;;;2.83;82.41;98454.82;258689;1108;23086;-73
2021/03/05 00:38:29;;;;;;;39.27;20.57;;;;;;;2.79;82.05;98453.70;258786;1107;23035;-73
2021/03/05 00:43:31;;;;;;;37.13;20.03;;;;;;;2.72;82.60;98459.96;259064;1107;23016;-73
2021/03/05 00:48:33;;;;;;;40.60;21.33;;;;;;;2.71;81.86;98457.56;258697;1108;23558;-72
2021/03/05 00:53:37;;;;;;;42.70;22.90;;;;;;;2.67;81.89;98456.45;258863;1109;23202;-74
2021/03/05 00:58:41;;;;;;;41.35;21.30;;;;;;;2.59;82.40;98462.97;258719;1109;23205;-74
2021/03/05 01:03:44;;;;;;;46.17;22.73;;;;;;;2.54;81.81;98454.95;258769;1109;23041;-73
2021/03/05 01:08:52;;;;;;;42.37;21.17;;;;;;;2.55;82.10;98446.78;258728;1109;23323;-74
2021/03/05 01:13:55;;;;;;;38.93;21.33;;;;;;;2.55;82.17;98446.78;259276;1109;23016;-73
2021/03/05 01:18:57;;;;;;;37.20;18.00;;;;;;;2.51;82.72;98445.66;258622;1108;23353;-74
2021/03/05 01:23:59;;;;;;;42.33;20.70;;;;;;;2.45;82.46;98441.36;258706;1109;23190;-74
2021/03/05 01:29:02;;;;;;;38.73;20.00;;;;;;;2.39;81.83;98439.67;258955;1109;23097;-74
2021/03/05 01:34:06;;;;;;;37.77;19.47;;;;;;;2.33;82.24;98420.30;259021;1109;23020;-74
2021/03/05 01:39:11;;;;;;;38.90;21.47;;;;;;;2.31;82.09;98432.15;258632;1109;23018;-72
2021/03/05 01:44:14;;;;;;;37.57;20.27;;;;;;;2.27;82.50;98436.31;258674;1108;23082;-73
2021/03/05 01:49:16;;;;;;;40.37;18.83;;;;;;;2.18;82.42;98422.72;258816;1109;23097;-73
2021/03/05 01:54:18;;;;;;;48.27;22.27;;;;;;;2.12;82.24;98418.41;258663;1109;23167;-74
2021/03/05 01:59:28;;;;;;;47.50;21.93;;;;;;;2.11;83.09;98417.59;258954;1108;23032;-72
2021/03/05 02:04:32;;;;;;;40.73;18.23;;;;;;;2.08;82.24;98418.08;259082;1108;26468;-74
2021/03/05 02:09:36;;;;;;;39.47;17.50;;;;;;;2.05;82.11;98413.28;258926;1109;23073;-73
2021/03/05 02:14:39;;;;;;;33.40;15.45;;;;;;;1.97;82.64;98414.50;258879;1109;23036;-74
2021/03/05 02:19:52;;;;;;;28.43;14.47;;;;;;;1.84;82.64;98410.31;258754;1109;23198;-74
2021/03/05 02:25:17;;;;;;;29.40;14.50;;;;;;;1.73;81.71;98424.40;258827;1109;23090;-73
2021/03/05 02:30:28;;;;;;;26.63;13.07;;;;;;;1.67;82.36;98428.01;258759;1109;23165;-73
2021/03/05 02:35:33;;;;;;;26.90;13.63;;;;;;;1.62;82.54;98419.98;258852;1109;23028;-74
2021/03/05 02:40:45;;;;;;;20.43;10.80;;;;;;;1.54;82.63;98429.11;258800;1108;23019;-73
2021/03/05 02:45:56;;;;;;;20.53;9.80;;;;;;;1.39;81.95;98437.55;258753;1109;23021;-74
2021/03/05 02:51:01;;;;;;;17.90;9.63;;;;;;;1.24;81.76;98443.34;258657;1109;28038;-72
2021/03/05 02:56:15;;;;;;;21.70;11.97;;;;;;;1.17;82.57;98456.66;258819;1109;23022;-73
2021/03/05 03:01:21;;;;;;;26.37;12.47;;;;;;;1.13;82.24;98460.80;258997;1108;23027;-73
2021/03/05 03:06:25;;;;;;;22.37;10.77;;;;;;;1.12;82.29;98472.41;258771;1109;23080;-73
2021/03/05 03:11:28;;;;;;;22.33;10.93;;;;;;;1.11;82.48;98473.44;258671;1109;23077;-74
2021/03/05 03:16:31;;;;;;;21.93;10.60;;;;;;;1.08;82.92;98481.83;259075;1109;23029;-74
2021/03/05 03:21:35;;;;;;;23.17;11.57;;;;;;;1.02;82.47;98485.38;259019;1107;23079;-74
2021/03/05 03:26:38;;;;;;;24.30;11.70;;;;;;;0.98;82.25;98486.88;258721;1109;23232;-73
2021/03/05 03:31:44;;;;;;;26.67;12.33;;;;;;;0.91;82.56;98489.67;258588;1109;23032;-73
2021/03/05 03:36:49;;;;;;;25.53;12.43;;;;;;;0.88;82.67;98494.59;259172;1108;23055;-73
2021/03/05 03:41:52;;;;;;;20.07;10.77;;;;;;;0.84;83.19;98492.42;258838;1109;23027;-74
2021/03/05 03:46:55;;;;;;;29.50;13.93;;;;;;;0.80;82.42;98490.49;259085;1107;23034;-73
2021/03/05 03:52:01;;;;;;;30.00;15.03;;;;;;;0.74;83.06;98492.22;258740;1109;23054;-75
2021/03/05 03:57:08;;;;;;;24.63;13.17;;;;;;;0.75;83.00;98496.44;258881;1109;23119;-73
2021/03/05 04:02:12;;;;;;;21.63;11.47;;;;;;;0.78;83.37;98508.36;258855;1109;23361;-74
2021/03/05 04:07:15;;;;;;;26.63;13.03;;;;;;;0.81;83.10;98513.17;259102;1109;23077;-73
2021/03/05 04:12:18;;;;;;;22.23;12.13;;;;;;;0.81;83.32;98524.54;258798;1109;22993;-74
2021/03/05 04:17:20;;;;;;;24.73;12.40;;;;;;;0.80;83.17;98522.14;258647;1109;23074;-74
2021/03/05 04:22:24;;;;;;;26.55;13.70;;;;;;;0.81;83.13;98518.44;259115;1109;23023;-74
2021/03/05 04:27:26;;;;;;;25.60;13.25;;;;;;;0.84;83.92;98510.09;258648;1109;23025;-74
2021/03/05 04:32:29;;;;;;;29.43;13.77;;;;;;;0.90;82.98;98519.70;258934;1109;23190;-74
2021/03/05 04:37:31;;;;;;;22.43;11.80;;;;;;;0.91;83.59;98520.50;259036;1109;23086;-73
2021/03/05 04:42:33;;;;;;;25.07;12.83;;;;;;;0.88;83.44;98519.12;258655;1109;23309;-73
2021/03/05 04:47:35;;;;;;;29.45;13.75;;;;;;;0.85;84.02;98523.05;258901;1109;23043;-74
2021/03/05 04:52:37;;;;;;;31.50;15.30;;;;;;;0.85;83.36;98514.31;258909;1109;23103;-73
2021/03/05 04:57:39;;;;;;;28.90;15.77;;;;;;;0.88;84.14;98520.97;258393;1110;23013;-73
2021/03/05 05:02:42;;;;;;;28.43;15.37;;;;;;;0.88;83.13;98515.69;258695;1109;23026;-74
2021/03/05 05:07:44;;;;;;;26.47;13.87;;;;;;;0.88;83.91;98523.60;258934;1108;22982;-75
2021/03/05 05:12:47;;;;;;;33.30;16.50;;;;;;;0.82;84.05;98523.48;258840;1108;23030;-74
2021/03/05 05:17:49;;;;;;;31.27;15.13;;;;;;;0.80;83.03;98515.02;258413;1109;23133;-74
2021/03/05 05:22:56;;;;;;;26.33;14.53;;;;;;;0.82;83.56;98534.03;258812;1109;23030;-74
2021/03/05 05:27:58;;;;;;;23.97;13.17;;;;;;;0.84;83.58;98542.53;258914;1108;23063;-75
2021/03/05 05:33:00;;;;;;;19.63;10.30;;;;;;;0.81;84.10;98537.72;258942;1109;23154;-75
2021/03/05 05:38:07;;;;;;;26.90;13.80;;;;;;;0.76;84.13;98545.52;259123;1108;26411;-73
2021/03/05 05:43:10;;;;;;;28.35;14.95;;;;;;;0.73;83.92;98540.70;259065;1109;24585;-74
2021/03/05 05:48:13;;;;;;;33.77;16.07;;;;;;;0.75;83.14;98546.53;259438;1108;23140;-75
2021/03/05 05:53:16;;;;;;;26.20;14.27;;;;;;;0.79;84.34;98549.53;259254;1109;23407;-74
2021/03/05 05:58:18;;;;;;;28.23;14.20;;;;;;;0.78;84.41;98553.98;259089;1107;23157;-74
2021/03/05 06:03:23;;;;;;;25.03;13.00;;;;;;;0.78;83.79;98555.83;258966;1109;23100;-74
2021/03/05 06:08:28;;;;;;;28.73;13.43;;;;;;;0.76;84.09;98558.70;258984;1108;23021;-75
2021/03/05 06:13:31;;;;;;;25.30;13.03;;;;;;;0.78;84.42;98561.89;259047;1108;23259;-74
2021/03/05 06:18:33;;;;;;;24.03;12.43;;;;;;;0.80;84.21;98575.67;258922;1109;23029;-73
2021/03/05 06:23:36;;;;;;;25.33;13.07;;;;;;;0.80;84.25;98582.79;258826;1109;23050;-75
2021/03/05 06:28:38;;;;;;;21.23;11.67;;;;;;;0.80;84.45;98596.77;258937;1109;23378;-74
2021/03/05 06:33:40;;;;;;;20.25;11.20;;;;;;;0.84;84.57;98600.55;258731;1109;23073;-74
2021/03/05 06:38:47;;;;;;;24.43;13.03;;;;;;;0.90;84.46;98606.74;258802;1109;23152;-74
2021/03/05 06:43:58;;;;;;;25.03;12.70;;;;;;;0.94;84.60;98610.53;259241;1107;23237;-73
2021/03/05 06:49:08;;;;;;;24.60;12.63;;;;;;;1.04;84.93;98630.27;259250;1108;23874;-74
2021/03/05 06:54:15;;;;;;;28.38;13.80;;;;;;;1.06;84.43;98634.26;259493;1109;26170;-74
2021/03/05 06:59:19;;;;;;;23.70;12.00;;;;;;;1.07;84.62;98641.15;260007;1109;23287;-73
2021/03/05 07:04:29;;;;;;;29.75;14.10;;;;;;;1.05;84.37;98651.14;259138;1108;23024;-74
2021/03/05 07:09:41;;;;;;;28.50;15.30;;;;;;;0.97;84.62;98669.94;259308;1109;23094;-72
2021/03/05 07:14:48;;;;;;;20.43;11.27;;;;;;;0.92;82.93;98683.00;259606;1109;23080;-73
2021/03/05 07:19:51;;;;;;;15.30;8.20;;;;;;;0.79;83.25;98698.00;259112;1108;23096;-73
2021/03/05 07:24:55;;;;;;;10.67;6.03;;;;;;;0.63;83.02;98703.91;258988;1108;23062;-72
2021/03/05 07:30:01;;;;;;;8.50;5.60;;;;;;;0.54;83.94;98721.09;259852;1108;23016;-74
2021/03/05 07:35:22;;;;;;;9.10;6.53;;;;;;;0.50;83.20;98711.00;259454;1107;23033;-75
2021/03/05 07:40:24;;;;;;;10.53;5.72;;;;;;;0.50;82.79;98721.55;259458;1109;23363;-75
2021/03/05 07:45:26;;;;;;;6.93;5.13;;;;;;;0.47;83.29;98736.98;259384;1109;23085;-75
2021/03/05 07:50:29;;;;;;;7.93;5.07;;;;;;;0.42;82.26;98744.75;259079;1108;23211;-76
2021/03/05 07:55:38;;;;;;;8.13;4.93;;;;;;;0.35;82.93;98750.13;259484;1109;23094;-76
2021/03/05 08:00:45;;;;;;;8.90;5.63;;;;;;;0.34;83.25;98753.78;259508;1108;23097;-75
2021/03/05 08:05:50;;;;;;;7.10;4.30;;;;;;;0.29;82.70;98759.70;259189;1108;23228;-75
2021/03/05 08:10:57;;;;;;;10.20;5.50;;;;;;;0.21;82.11;98767.11;259124;1108;23222;-75
2021/03/05 08:16:27;;;;;;;7.17;4.27;;;;;;;0.21;82.23;98780.27;259322;1109;23099;-73
2021/03/05 08:21:52;;;;;;;8.80;4.93;;;;;;;0.06;81.12;98799.90;259694;1108;23081;-75
2021/03/05 08:27:11;;;;;;;6.93;4.00;;;;;;;0.01;82.02;98793.67;259512;1108;23067;-76
2021/03/05 08:32:35;;;;;;;8.35;4.70;;;;;;;0.04;82.45;98798.50;259138;1109;23087;-76
2021/03/05 08:37:44;;;;;;;11.33;5.60;;;;;;;0.20;82.20;98807.64;259184;1109;23124;-75
2021/03/05 08:42:50;;;;;;;15.17;7.93;;;;;;;0.47;81.83;98814.22;260006;1109;23151;-75
2021/03/05 08:47:58;;;;;;;12.77;6.93;;;;;;;0.71;81.65;98821.45;259047;1107;23497;-76
2021/03/05 08:53:05;;;;;;;11.27;6.77;;;;;;;0.93;81.78;98824.42;259147;1108;26102;-74
2021/03/05 08:58:08;;;;;;;13.27;7.07;;;;;;;1.10;81.81;98825.38;259145;1109;23013;-74
2021/03/05 09:03:15;;;;;;;10.50;6.37;;;;;;;1.33;81.32;98837.02;259634;1108;23089;-73
2021/03/05 09:08:25;;;;;;;12.13;7.10;;;;;;;1.58;80.98;98839.50;259345;1109;27501;-73
2021/03/05 09:13:30;;;;;;;13.10;7.50;;;;;;;1.72;80.82;98832.14;259137;1109;27304;-73
2021/03/05 09:18:36;;;;;;;11.37;6.13;;;;;;;1.69;80.11;98844.00;259056;1108;23050;-73
2021/03/05 09:23:45;;;;;;;11.37;7.00;;;;;;;1.71;79.30;98855.12;259296;1108;23023;-72
2021/03/05 09:29:03;;;;;;;10.10;6.45;;;;;;;1.58;79.76;98862.45;259391;1107;23017;-73
2021/03/05 09:34:07;;;;;;;11.00;6.65;;;;;;;1.58;80.46;98865.09;259330;1109;23033;-73
2021/03/05 09:39:09;;;;;;;10.67;7.00;;;;;;;1.68;78.87;98875.92;259696;1108;23043;-73
2021/03/05 09:44:11;;;;;;;7.73;5.60;;;;;;;1.77;78.47;98874.53;259544;1109;23472;-73
2021/03/05 09:49:24;;;;;;;10.70;6.73;;;;;;;2.01;78.65;98885.12;259792;1108;23039;-72
2021/03/05 09:54:40;;;;;;;9.20;6.20;;;;;;;2.18;78.64;98870.20;262333;1108;23030;-72
2021/03/05 09:59:49;;;;;;;8.70;5.43;;;;;;;2.39;78.54;98899.70;259517;1109;23079;-74
2021/03/05 10:04:51;;;;;;;8.57;5.70;;;;;;;2.46;76.96;98895.09;259839;1109;28561;-74
2021/03/05 10:10:08;;;;;;;8.83;5.57;;;;;;;2.43;77.03;98889.48;261957;1109;23618;-74
2021/03/05 10:15:11;;;;;;;7.97;5.20;;;;;;;2.47;75.85;98893.27;259321;1109;23083;-72
2021/03/05 10:20:14;;;;;;;8.40;5.50;;;;;;;2.35;75.67;98909.13;259461;1107;23198;-74
2021/03/05 10:25:16;;;;;;;6.43;4.47;;;;;;;2.20;74.54;98920.98;259340;1109;26487;-76
2021/03/05 10:30:19;;;;;;;8.17;5.47;;;;;;;2.08;74.98;98911.44;259817;1109;23120;-74
2021/03/05 10:35:21;;;;;;;6.95;5.10;;;;;;;2.16;75.86;98922.47;259382;1108;23020;-73
2021/03/05 10:40:30;;;;;;;6.47;4.63;;;;;;;2.22;74.66;98948.00;259608;1108;22978;-74
2021/03/05 10:45:33;;;;;;;5.35;3.90;;;;;;;2.27;73.80;98942.02;259625;1109;23345;-73
2021/03/05 10:50:35;;;;;;;5.17;3.70;;;;;;;2.29;72.98;98953.16;259452;1109;23194;-74
2021/03/05 10:55:37;;;;;;;5.30;3.70;;;;;;;2.30;72.89;98956.63;259715;1109;23083;-75
2021/03/05 11:00:39;;;;;;;6.80;4.00;;;;;;;2.42;72.80;98953.97;259107;1108;23021;-74
2021/03/05 11:05:41;;;;;;;6.67;4.17;;;;;;;2.52;72.68;98962.94;259786;1107;23049;-73
2021/03/05 11:10:44;;;;;;;6.10;3.20;;;;;;;2.56;72.04;98974.67;259978;1107;23012;-71
2021/03/05 11:15:46;;;;;;;5.07;3.43;;;;;;;2.53;71.99;98969.02;261636;1108;23664;-74
2021/03/05 11:20:49;;;;;;;7.97;3.70;;;;;;;2.53;71.63;98969.02;260278;1108;23274;-73
2021/03/05 11:25:52;;;;;;;3.75;2.60;;;;;;;2.49;71.31;98989.02;259464;1108;23021;-73
2021/03/05 11:30:54;;;;;;;4.40;2.20;;;;;;;2.48;70.27;98987.44;259488;1107;26516;-73
2021/03/05 11:35:58;;;;;;;3.93;2.57;;;;;;;2.53;70.79;98975.13;262101;1109;23093;-73
2021/03/05 11:41:00;;;;;;;2.90;1.83;;;;;;;2.42;68.62;98991.80;259779;1107;23020;-73
2021/03/05 11:46:02;;;;;;;2.90;1.80;;;;;;;2.32;69.11;98988.91;259543;1108;23006;-73
2021/03/05 11:51:07;;;;;;;3.67;2.00;;;;;;;2.30;69.51;98997.07;260114;1109;23064;-72
2021/03/05 11:56:09;;;;;;;1.97;1.37;;;;;;;2.26;68.43;99001.20;259573;1109;23046;-74
2021/03/05 12:01:13;;;;;;;2.60;1.50;;;;;;;2.53;69.86;98996.30;259562;1108;23168;-73
2021/03/05 12:06:15;;;;;;;5.77;1.67;;;;;;;2.49;67.98;98996.95;258942;1109;23053;-73
2021/03/05 12:11:17;;;;;;;3.87;2.17;;;;;;;2.30;66.87;99017.42;259286;1109;23006;-72
2021/03/05 12:16:19;;;;;;;2.10;1.20;;;;;;;2.11;66.52;99014.05;259129;1109;23063;-73
2021/03/05 12:21:21;;;;;;;1.63;1.23;;;;;;;2.30;66.79;98998.92;259411;1109;23262;-72
2021/03/05 12:26:24;;;;;;;3.00;1.75;;;;;;;2.41;66.09;99021.92;259527;1109;23226;-72
2021/03/05 12:31:26;;;;;;;1.97;1.20;;;;;;;2.26;64.01;99017.06;259494;1108;23025;-73
2021/03/05 12:36:30;;;;;;;3.00;1.30;;;;;;;2.07;62.92;99042.78;262239;1108;23216;-72
2021/03/05 12:41:33;;;;;;;4.17;1.90;;;;;;;2.08;63.98;99048.86;260487;1109;27821;-71
2021/03/05 12:46:40;;;;;;;2.30;1.30;;;;;;;2.34;63.98;99045.02;259380;1108;23003;-73
2021/03/05 12:51:43;;;;;;;3.30;1.40;;;;;;;2.36;60.31;99058.80;259307;1108;23163;-71
2021/03/05 12:56:46;;;;;;;4.60;2.13;;;;;;;2.09;60.61;99059.20;259461;1107;25161;-73
2021/03/05 13:01:48;;;;;;;4.23;2.00;;;;;;;1.91;61.52;99073.27;259224;1108;23158;-73
2021/03/05 13:06:50;;;;;;;3.00;1.60;;;;;;;1.88;61.31;99071.87;259199;1107;23074;-71
2021/03/05 13:11:52;;;;;;;3.83;1.33;;;;;;;1.85;61.27;99097.95;259318;1108;23026;-72
2021/03/05 13:16:54;;;;;;;12.13;3.50;;;;;;;1.83;61.16;99098.19;259050;1108;22978;-73
2021/03/05 13:21:59;;;;;;;7.97;2.73;;;;;;;1.85;59.94;99098.75;259204;1108;23022;-73
2021/03/05 13:27:00;;;;;;;7.15;2.90;;;;;;;1.88;59.18;99103.59;259190;1108;23052;-73
2021/03/05 13:32:03;;;;;;;7.20;1.97;;;;;;;1.83;58.66;99103.47;259614;1107;23007;-72
2021/03/05 13:37:06;;;;;;;2.65;1.65;;;;;;;1.83;60.43;99110.56;259522;1109;23225;-72
2021/03/05 13:42:09;;;;;;;4.75;2.10;;;;;;;1.94;59.39;99138.08;259531;1109;26217;-72
2021/03/05 13:47:11;;;;;;;5.23;2.30;;;;;;;1.95;59.65;99137.85;259732;1108;23019;-72
2021/03/05 13:52:13;;;;;;;3.95;1.85;;;;;;;1.99;59.86;99128.45;259544;1106;26476;-71
2021/03/05 13:57:15;;;;;;;8.23;2.93;;;;;;;2.02;59.26;99140.42;260111;1109;23034;-73
2021/03/05 14:02:18;;;;;;;8.67;3.20;;;;;;;2.00;58.37;99142.46;259225;1109;23018;-73
2021/03/05 14:07:21;;;;;;;11.83;3.07;;;;;;;1.93;58.42;99160.23;259406;1109;23078;-72
2021/03/05 14:12:23;;;;;;;6.83;2.67;;;;;;;1.86;58.72;99149.74;259352;1109;23090;-73
2021/03/05 14:17:25;;;;;;;3.50;1.70;;;;;;;1.87;58.12;99154.01;259137;1109;23052;-73
2021/03/05 14:22:28;;;;;;;4.57;2.50;;;;;;;1.94;58.54;99167.94;259370;1109;23097;-72
2021/03/05 14:27:31;;;;;;;2.80;1.33;;;;;;;1.96;57.05;99168.54;259742;1108;23034;-73
2021/03/05 14:32:34;;;;;;;3.23;1.33;;;;;;;1.86;57.56;99173.52;259804;1108;23027;-74
2021/03/05 14:37:36;;;;;;;3.63;1.50;;;;;;;1.77;57.31;99178.30;259902;1106;23026;-73
2021/03/05 14:42:39;;;;;;;3.30;1.80;;;;;;;1.78;57.94;99179.13;259641;1109;23037;-74
2021/03/05 14:47:41;;;;;;;2.50;1.37;;;;;;;1.77;58.96;99193.36;259250;1109;23033;-74
2021/03/05 14:52:44;;;;;;;3.37;1.73;;;;;;;1.75;57.96;99201.50;259318;1107;23284;-74
2021/03/05 14:57:46;;;;;;;2.75;1.65;;;;;;;1.74;58.63;99212.30;259556;1108;23096;-74
2021/03/05 15:02:48;;;;;;;3.53;1.53;;;;;;;1.68;57.91;99213.98;259651;1108;23229;-72
2021/03/05 15:07:50;;;;;;;2.33;1.60;;;;;;;1.62;58.27;99217.47;259983;1109;28319;-74
2021/03/05 15:12:53;;;;;;;3.83;1.40;;;;;;;1.61;57.49;99234.34;259950;1109;23083;-74
2021/03/05 15:17:59;;;;;;;4.57;1.80;;;;;;;1.57;57.77;99233.98;260824;1108;23071;-73
2021/03/05 15:23:01;;;;;;;3.07;1.63;;;;;;;1.57;58.75;99241.08;259413;1107;23033;-73
2021/03/05 15:28:05;;;;;;;3.57;1.27;;;;;;;1.50;58.63;99247.24;259498;1109;23023;-73
2021/03/05 15:33:07;;;;;;;3.10;1.80;;;;;;;1.44;59.15;99263.96;259439;1109;23048;-74
2021/03/05 15:38:09;;;;;;;2.77;1.37;;;;;;;1.38;59.36;99275.37;259616;1108;23390;-73
2021/03/05 15:43:11;;;;;;;1.80;1.13;;;;;;;1.32;58.49;99277.04;259286;1109;23036;-72
2021/03/05 15:48:16;;;;;;;3.20;1.60;;;;;;;1.28;57.36;99280.33;259367;1108;23097;-73
2021/03/05 15:53:20;;;;;;;4.87;1.57;;;;;;;1.18;57.57;99292.16;259283;1106;23218;-72
2021/03/05 15:58:22;;;;;;;2.17;1.40;;;;;;;1.12;58.27;99300.13;258917;1107;23083;-72
2021/03/05 16:03:24;;;;;;;6.10;2.10;;;;;;;1.07;57.76;99305.25;258895;1108;23164;-72
2021/03/05 16:08:27;;;;;;;4.10;2.13;;;;;;;0.96;57.64;99320.72;259068;1109;23025;-73
2021/03/05 16:13:29;;;;;;;7.27;2.57;;;;;;;0.85;57.27;99324.03;259072;1109;23576;-73
2021/03/05 16:18:31;;;;;;;5.73;2.47;;;;;;;0.69;58.40;99322.70;259094;1108;23033;-73
2021/03/05 16:23:34;;;;;;;3.80;1.80;;;;;;;0.53;58.97;99326.59;259187;1109;23084;-73
2021/03/05 16:28:36;;;;;;;2.95;1.45;;;;;;;0.43;59.50;99345.49;259034;1109;23036;-73
2021/03/05 16:33:39;;;;;;;3.17;1.53;;;;;;;0.36;61.01;99357.09;259056;1109;23029;-73
2021/03/05 16:38:41;;;;;;;5.17;1.47;;;;;;;0.32;61.23;99372.49;258888;1107;23025;-72
2021/03/05 16:43:43;;;;;;;4.17;1.53;;;;;;;0.32;62.11;99386.50;259276;1108;23090;-72
2021/03/05 16:48:45;;;;;;;5.30;2.60;;;;;;;0.33;61.75;99396.00;259156;1107;23225;-72
2021/03/05 16:53:48;;;;;;;3.70;2.03;;;;;;;0.37;62.04;99408.80;259105;1109;23361;-72
2021/03/05 16:58:50;;;;;;;4.10;1.70;;;;;;;0.30;62.48;99416.70;258681;1109;23022;-71
2021/03/05 17:03:52;;;;;;;4.60;2.00;;;;;;;0.19;62.66;99425.23;259260;1109;23788;-72
2021/03/05 17:08:54;;;;;;;2.47;1.50;;;;;;;0.04;62.47;99428.07;258868;1109;23288;-72
2021/03/05 17:13:57;;;;;;;3.03;1.63;;;;;;;-0.17;63.48;99448.31;259107;1109;23027;-72
2021/03/05 17:19:00;;;;;;;3.27;1.50;;;;;;;-0.37;64.08;99458.84;259150;1108;23046;-70
2021/03/05 17:24:04;;;;;;;2.53;1.43;;;;;;;-0.56;64.51;99461.23;258945;1109;23027;-73
2021/03/05 17:29:06;;;;;;;6.30;2.23;;;;;;;-0.67;65.13;99472.33;259051;1107;23016;-71
2021/03/05 17:34:09;;;;;;;4.63;2.00;;;;;;;-0.76;65.92;99484.03;259093;1108;23494;-72
2021/03/05 17:39:10;;;;;;;5.73;2.83;;;;;;;-0.88;66.49;99487.23;258757;1109;23089;-73
2021/03/05 17:44:13;;;;;;;6.30;3.05;;;;;;;-0.97;66.56;99493.64;258771;1109;23276;-72
2021/03/05 17:49:15;;;;;;;7.50;3.53;;;;;;;-1.03;66.58;99502.33;258738;1109;26025;-72
2021/03/05 17:54:17;;;;;;;8.97;3.83;;;;;;;-1.06;67.56;99513.24;259068;1109;23306;-73
2021/03/05 17:59:19;;;;;;;7.40;3.87;;;;;;;-1.08;67.64;99523.13;258963;1109;23027;-72
2021/03/05 18:04:21;;;;;;;11.40;4.13;;;;;;;-1.12;67.56;99527.14;259102;1108;23178;-72
2021/03/05 18:09:23;;;;;;;10.50;4.07;;;;;;;-1.19;67.79;99534.98;258786;1108;23099;-72
2021/03/05 18:14:26;;;;;;;9.23;3.77;;;;;;;-1.23;68.27;99534.58;259204;1109;23051;-71
2021/03/05 18:19:28;;;;;;;10.00;4.67;;;;;;;-1.26;68.50;99545.48;258883;1107;23213;-72
2021/03/05 18:24:31;;;;;;;9.17;4.43;;;;;;;-1.31;68.07;99539.98;258971;1109;27777;-73
2021/03/05 18:29:33;;;;;;;12.13;4.90;;;;;;;-1.34;69.17;99547.42;258682;1109;23034;-73
2021/03/05 18:34:35;;;;;;;9.33;4.80;;;;;;;-1.43;69.03;99550.22;259033;1108;23020;-73
2021/03/05 18:39:37;;;;;;;9.80;4.77;;;;;;;-1.47;69.06;99558.66;259097;1109;24289;-73
2021/03/05 18:44:39;;;;;;;12.27;5.20;;;;;;;-1.51;69.14;99574.01;259116;1109;23030;-72
2021/03/05 18:49:41;;;;;;;9.53;4.70;;;;;;;-1.53;69.25;99576.00;259241;1109;23154;-72
2021/03/05 18:54:47;;;;;;;12.10;6.37;;;;;;;-1.55;69.45;99581.44;259063;1108;23088;-72
2021/03/05 18:59:50;;;;;;;15.70;6.10;;;;;;;-1.54;69.10;99590.13;259034;1108;26421;-73
2021/03/05 19:04:53;;;;;;;13.17;5.73;;;;;;;-1.53;69.44;99602.27;259200;1108;23232;-73
2021/03/05 19:09:55;;;;;;;13.80;5.40;;;;;;;-1.51;69.64;99607.34;259089;1109;23502;-72
2021/03/05 19:14:57;;;;;;;10.57;4.80;;;;;;;-1.51;69.41;99604.71;259072;1109;23027;-72
2021/03/05 19:20:03;;;;;;;12.63;5.90;;;;;;;-1.50;69.60;99622.11;259104;1109;23224;-72
2021/03/05 19:25:08;;;;;;;15.50;5.70;;;;;;;-1.51;69.84;99625.73;258793;1109;23149;-72
2021/03/05 19:30:11;;;;;;;12.23;5.30;;;;;;;-1.54;70.20;99626.92;258942;1109;25549;-72
2021/03/05 19:35:13;;;;;;;12.73;5.57;;;;;;;-1.57;70.15;99628.13;258972;1109;23030;-72
2021/03/05 19:40:16;;;;;;;13.07;5.07;;;;;;;-1.61;69.77;99647.07;258778;1108;23296;-72
2021/03/05 19:45:19;;;;;;;11.17;5.13;;;;;;;-1.64;69.67;99650.08;258662;1109;23205;-73
2021/03/05 19:50:21;;;;;;;11.97;5.10;;;;;;;-1.71;69.99;99660.51;258929;1109;23077;-72
2021/03/05 19:55:23;;;;;;;15.63;6.27;;;;;;;-1.74;69.84;99679.28;258990;1109;26015;-73
2021/03/05 20:00:26;;;;;;;16.83;7.70;;;;;;;-1.75;70.30;99681.10;259311;1109;23017;-73
2021/03/05 20:05:28;;;;;;;17.60;7.47;;;;;;;-1.76;69.92;99683.92;258785;1108;23013;-73
2021/03/05 20:10:31;;;;;;;26.10;7.97;;;;;;;-1.78;70.10;99691.16;259005;1107;24812;-72
2021/03/05 20:15:34;;;;;;;15.57;7.87;;;;;;;-1.82;70.65;99698.61;258995;1109;23015;-73
2021/03/05 20:20:37;;;;;;;19.07;7.53;;;;;;;-1.87;70.33;99700.96;259103;1109;23247;-71
2021/03/05 20:25:40;;;;;;;16.77;7.83;;;;;;;-1.93;70.78;99707.77;259070;1109;23481;-71
2021/03/05 20:30:42;;;;;;;15.97;7.13;;;;;;;-1.94;71.26;99703.50;258857;1109;24919;-72
2021/03/05 20:35:44;;;;;;;15.60;6.10;;;;;;;-1.97;71.16;99705.67;259073;1109;23027;-72
2021/03/05 20:40:46;;;;;;;13.27;5.93;;;;;;;-1.99;71.74;99716.36;259182;1108;22994;-72
2021/03/05 20:45:49;;;;;;;15.07;5.70;;;;;;;-2.01;71.59;99717.56;259062;1109;23611;-72
2021/03/05 20:50:51;;;;;;;14.53;5.83;;;;;;;-2.02;71.57;99724.61;258852;1108;23327;-72
2021/03/05 20:55:54;;;;;;;13.07;5.80;;;;;;;-2.06;71.90;99723.34;258976;1109;23068;-72
2021/03/05 21:00:56;;;;;;;14.77;6.03;;;;;;;-2.09;72.38;99735.02;259091;1109;23089;-72
2021/03/05 21:06:03;;;;;;;13.03;6.60;;;;;;;-2.10;71.97;99737.83;259008;1109;23089;-72
2021/03/05 21:11:05;;;;;;;10.43;5.07;;;;;;;-2.12;72.65;99735.39;258936;1108;23098;-72
2021/03/05 21:16:09;;;;;;;16.47;6.07;;;;;;;-2.14;72.85;99744.44;259009;1109;23010;-73
2021/03/05 21:21:10;;;;;;;14.30;6.50;;;;;;;-2.17;72.82;99742.19;258893;1108;23032;-72
2021/03/05 21:26:12;;;;;;;16.87;6.63;;;;;;;-2.17;72.55;99752.69;259066;1107;23221;-71
2021/03/05 21:31:15;;;;;;;14.53;6.43;;;;;;;-2.22;72.98;99760.28;259138;1107;23024;-72
2021/03/05 21:36:17;;;;;;;14.43;6.27;;;;;;;-2.27;72.96;99761.66;259030;1108;23020;-72
2021/03/05 21:41:19;;;;;;;11.37;5.97;;;;;;;-2.31;73.48;99772.68;258824;1109;23034;-72
2021/03/05 21:46:22;;;;;;;12.90;5.90;;;;;;;-2.32;73.27;99773.66;258986;1109;23353;-71
2021/03/05 21:51:24;;;;;;;10.93;5.20;;;;;;;-2.35;73.82;99780.11;259007;1109;23154;-71
2021/03/05 21:56:27;;;;;;;14.63;5.83;;;;;;;-2.36;74.04;99782.92;258958;1109;23074;-72
2021/03/05 22:01:29;;;;;;;11.67;5.87;;;;;;;-2.36;74.09;99785.55;258694;1109;23098;-72
2021/03/05 22:06:32;;;;;;;17.23;7.70;;;;;;;-2.40;74.17;99785.08;259078;1109;26418;-75
2021/03/05 22:11:34;;;;;;;13.40;6.70;;;;;;;-2.39;74.09;99788.50;259407;1108;23094;-72
2021/03/05 22:16:36;;;;;;;13.37;6.57;;;;;;;-2.44;74.36;99796.92;259071;1109;23010;-72
2021/03/05 22:21:40;;;;;;;14.37;6.83;;;;;;;-2.48;74.30;99800.89;259015;1109;23033;-72
2021/03/05 22:26:42;;;;;;;17.17;7.77;;;;;;;-2.53;74.60;99801.44;259075;1107;25983;-72
2021/03/05 22:31:44;;;;;;;16.73;8.80;;;;;;;-2.55;74.80;99799.97;258780;1109;23235;-72
2021/03/05 22:36:47;;;;;;;19.90;9.43;;;;;;;-2.59;74.88;99810.00;259129;1108;23021;-72
2021/03/05 22:41:50;;;;;;;23.20;10.97;;;;;;;-2.63;74.96;99809.55;258933;1109;23222;-72
2021/03/05 22:46:52;;;;;;;19.63;10.93;;;;;;;-2.63;74.64;99811.34;259020;1108;23032;-72
2021/03/05 22:51:55;;;;;;;26.77;10.40;;;;;;;-2.65;75.20;99810.72;258665;1108;26106;-71
2021/03/05 22:56:57;;;;;;;22.60;9.93;;;;;;;-2.69;75.07;99820.73;259058;1109;22990;-71
2021/03/05 23:01:59;;;;;;;20.47;9.67;;;;;;;-2.71;75.38;99814.86;258794;1109;23149;-72
2021/03/05 23:07:01;;;;;;;32.17;13.03;;;;;;;-2.86;74.91;99821.86;258765;1108;23077;-71
2021/03/05 23:12:04;;;;;;;28.43;12.53;;;;;;;-3.05;75.27;99818.71;259041;1108;23027;-72
2021/03/05 23:17:06;;;;;;;25.53;10.10;;;;;;;-3.23;75.02;99818.14;258984;1108;27184;-72
2021/03/05 23:22:08;;;;;;;21.73;9.23;;;;;;;-3.32;75.38;99830.48;258950;1109;23337;-71
2021/03/05 23:27:11;;;;;;;23.27;10.90;;;;;;;-3.37;75.57;99841.48;258712;1109;23087;-71
2021/03/05 23:32:13;;;;;;;17.50;8.37;;;;;;;-3.35;75.75;99829.02;259062;1109;23080;-72